Kingsville Naval Air Station Kingsville US
ICAO: KNQI
IATA: NQI
Category: Medium
Scheduled Services: No

Elevation: 50 ft
TransAlt. 18000 ft.

Airport Communications:
APP:119.9
ATIS:27.62
CLNC DEL:32.84
DEP:26.68
GND:35.24
BASE OPS:27.48
PMSV METRO:34.46
TWR:124.1

KNQI Zoom In..

Runways:

(A) RW 13L length 8000 ft width 200 ft
---- / hdg 127

(B) RW 13R length 8000 ft width 200 ft
ILS 110.90 / hdg 127

(C) RW 17L length 8000 ft width 200 ft
---- / hdg 172

(D) RW 17R length 8000 ft width 200 ft
---- / hdg 172

(E) RW 31L length 8000 ft width 200 ft
---- / hdg 307

(F) RW 31R length 8000 ft width 200 ft
---- / hdg 307

(G) RW 35L length 8000 ft width 200 ft
---- / hdg 352

(H) RW 35R length 8000 ft width 200 ft
---- / hdg 352

Location; KNQI
Day. 15 / Time. 21.56 Zulu
* Altimeter: 29.94
* Temperature: 34° c. 93.2°f.
* Wind from: 140° Speed 18 kn with Gusts up to 28 kn.
Dewpoint: 24° c.
Visibility: 10 Statute Miles.
Clouds: Few 4000 ft.

KNQI 152156Z 14018G28KT 10SM FEW040 34/24 A2994 RMK AO2 PK WND 13028/2156 SLP137 T03390244


Wind From 140°
Speed 18 kn.

 
 
jpsmedia.com for Web Design worldairports.se 2018   terms of use